Terminal Aerodrome Forecast
Issued by NWS Jackson, MS

Home | Current Version | Previous Version | Text Only | Print | Product List | Glossary On
Versions: 1 2 3 4 5 6 7 8 9 10 11 12 13 14 15
000
FTUS44 KJAN 271741
TAFGLH
TAF
KGLH 271741Z 2718/2818 21015G25KT P6SM BKN035
     FM271830 21015G25KT P6SM -SHRA VCTS OVC035CB
     FM272200 21012G20KT P6SM VCTS BKN050CB
     FM280300 28005KT 5SM BR OVC015=

USA.gov is the U.S. government's official web portal to all federal, state and local government web resources and services.